createdAt,value
2024-04-30T00:01:44.916Z,99696.84
2024-04-30T00:04:15.093Z,99696.34
2024-04-30T00:06:42.303Z,99692.84
2024-04-30T00:09:09.221Z,99698.69
2024-04-30T00:11:43.539Z,99701.72
2024-04-30T00:14:11.135Z,99704.59
2024-04-30T00:16:42.251Z,99702.38
2024-04-30T00:19:09.444Z,99712.06
2024-04-30T00:21:45.897Z,99716.22
2024-04-30T00:24:12.822Z,99707.53
2024-04-30T00:26:40.097Z,99710.38
2024-04-30T00:29:07.380Z,99712.50
2024-04-30T00:31:34.453Z,99716.72
2024-04-30T00:34:01.439Z,99713.19
2024-04-30T00:36:28.421Z,99720.22
2024-04-30T00:38:55.337Z,99722.09
2024-04-30T00:41:22.383Z,99719.25
2024-04-30T00:43:49.245Z,99724.09
2024-04-30T00:46:16.278Z,99732.94
2024-04-30T00:48:44.531Z,99733.09
2024-04-30T00:51:13.621Z,99726.94
2024-04-30T00:53:43.852Z,99730.13
2024-04-30T00:56:11.218Z,99734.28
2024-04-30T00:58:38.203Z,99731.13
2024-04-30T01:01:05.756Z,99738.47
2024-04-30T01:03:32.853Z,99739.94
2024-04-30T01:05:59.900Z,99742.06
2024-04-30T01:08:26.815Z,99740.91
2024-04-30T01:10:53.671Z,99746.06
2024-04-30T01:13:20.905Z,99741.41
2024-04-30T01:15:48.289Z,99750.06
2024-04-30T01:18:15.563Z,99748.44
2024-04-30T01:20:42.662Z,99747.06
2024-04-30T01:23:09.598Z,99748.44
2024-04-30T01:25:36.470Z,99752.72
2024-04-30T01:28:03.805Z,99753.06
2024-04-30T01:30:30.723Z,99760.44
2024-04-30T01:32:57.764Z,99763.75
2024-04-30T01:35:24.695Z,99767.97
2024-04-30T01:37:51.597Z,99752.56
2024-04-30T01:40:18.614Z,99756.75
2024-04-30T01:42:45.725Z,99764.38
2024-04-30T01:45:12.632Z,99767.44
2024-04-30T01:47:39.631Z,99770.72
2024-04-30T01:50:07.233Z,99773.03
2024-04-30T01:52:34.266Z,99776.06
2024-04-30T01:55:01.378Z,99773.69
2024-04-30T01:57:28.408Z,99774.88
2024-04-30T01:59:55.257Z,99772.69
2024-04-30T02:02:22.222Z,99782.81
2024-04-30T02:04:53.308Z,99787.53
2024-04-30T02:07:21.119Z,99782.00
2024-04-30T02:09:48.168Z,99781.16
2024-04-30T02:12:15.230Z,99794.03
2024-04-30T02:14:42.320Z,99785.16
2024-04-30T02:17:09.228Z,99786.41
2024-04-30T02:19:36.140Z,99785.66
2024-04-30T02:22:03.114Z,99789.06
2024-04-30T02:24:30.072Z,99794.06
2024-04-30T02:26:56.981Z,99798.97
2024-04-30T02:29:23.878Z,99797.84
2024-04-30T02:32:09.675Z,99812.72
2024-04-30T02:34:36.708Z,99807.75
2024-04-30T02:37:03.783Z,99813.34
2024-04-30T02:39:30.755Z,99813.50
2024-04-30T02:41:57.666Z,99814.75
2024-04-30T02:44:24.542Z,99818.59
2024-04-30T02:46:51.466Z,99834.13
2024-04-30T02:49:18.452Z,99831.09
2024-04-30T02:51:45.960Z,99827.13
2024-04-30T02:54:12.954Z,99825.84
2024-04-30T02:56:39.865Z,99822.91
2024-04-30T02:59:06.856Z,99822.25
2024-04-30T03:01:33.765Z,99822.41
2024-04-30T03:04:00.998Z,99825.59
2024-04-30T03:06:27.908Z,99830.06
2024-04-30T03:08:55.132Z,99836.13
2024-04-30T03:11:22.265Z,99840.53
2024-04-30T03:13:49.228Z,99849.84
2024-04-30T03:16:16.222Z,99851.22
2024-04-30T03:18:43.153Z,99855.56
2024-04-30T03:21:13.461Z,99855.19
2024-04-30T03:23:40.617Z,99864.19
2024-04-30T03:26:07.543Z,99857.03
2024-04-30T03:28:34.669Z,99860.09
2024-04-30T03:31:03.214Z,99861.66
2024-04-30T03:33:30.332Z,99862.78
2024-04-30T03:35:57.324Z,99866.00
2024-04-30T03:38:24.228Z,99871.47
2024-04-30T03:40:51.322Z,99872.34
2024-04-30T03:43:18.320Z,99870.03
2024-04-30T03:45:45.349Z,99869.06
2024-04-30T03:48:12.270Z,99858.59
2024-04-30T03:50:39.178Z,99864.38
2024-04-30T03:53:06.182Z,99878.72
2024-04-30T03:55:33.275Z,99872.00
2024-04-30T03:58:00.304Z,99874.06
2024-04-30T04:00:27.251Z,99884.78
2024-04-30T04:02:54.177Z,99885.06
2024-04-30T04:05:21.128Z,99892.78
2024-04-30T04:07:48.002Z,99890.56
2024-04-30T04:10:15.006Z,99884.00
2024-04-30T04:13:17.290Z,99884.25
2024-04-30T04:15:44.189Z,99891.94
2024-04-30T04:18:11.102Z,99895.22
2024-04-30T04:20:37.999Z,99891.56
2024-04-30T04:23:05.094Z,99895.59
2024-04-30T04:25:31.996Z,99895.22
2024-04-30T04:27:58.924Z,99897.34
2024-04-30T04:30:25.812Z,99903.22
2024-04-30T04:32:52.778Z,99896.44
2024-04-30T04:35:19.766Z,99896.44
2024-04-30T04:37:46.622Z,99892.31
2024-04-30T04:40:13.680Z,99898.03
2024-04-30T04:42:40.643Z,99904.72
2024-04-30T04:45:07.654Z,99900.13
2024-04-30T04:47:34.762Z,99894.94
2024-04-30T04:50:01.775Z,99898.78
2024-04-30T04:52:28.689Z,99903.34
2024-04-30T04:54:55.633Z,99899.03
2024-04-30T04:57:22.519Z,99904.31
2024-04-30T04:59:49.392Z,99912.34
2024-04-30T05:02:16.418Z,99908.94
2024-04-30T05:04:43.594Z,99920.50
2024-04-30T05:07:10.576Z,99916.38
2024-04-30T05:09:37.528Z,99926.31
2024-04-30T05:12:04.868Z,99924.97
2024-04-30T05:14:31.822Z,99930.94
2024-04-30T05:16:58.715Z,99930.22
2024-04-30T05:19:25.620Z,99930.56
2024-04-30T05:21:52.471Z,99936.06
2024-04-30T05:24:19.394Z,99933.72
2024-04-30T05:26:46.283Z,99938.03
2024-04-30T05:29:13.363Z,99936.44
2024-04-30T05:31:40.259Z,99939.84
2024-04-30T05:34:07.269Z,99941.88
2024-04-30T05:36:34.104Z,99947.72
2024-04-30T05:39:03.225Z,99957.44
2024-04-30T05:41:30.759Z,99960.25
2024-04-30T05:43:57.644Z,99953.06
2024-04-30T05:46:24.655Z,99947.06
2024-04-30T05:48:51.583Z,99953.94
2024-04-30T05:51:18.510Z,99961.41
2024-04-30T05:53:45.359Z,99949.88
2024-04-30T05:56:12.259Z,99949.44
2024-04-30T05:58:39.276Z,99954.75
2024-04-30T06:01:06.374Z,99941.34
2024-04-30T06:03:33.495Z,99946.81
2024-04-30T06:06:00.519Z,99941.28
2024-04-30T06:08:27.407Z,99958.91
2024-04-30T06:10:54.364Z,99958.44
2024-04-30T06:13:21.309Z,99968.81
2024-04-30T06:15:48.178Z,99965.91
2024-04-30T06:18:15.240Z,99975.75
2024-04-30T06:20:42.128Z,99986.84
2024-04-30T06:23:09.058Z,99978.78
2024-04-30T06:25:36.328Z,99969.75
2024-04-30T06:28:03.419Z,99987.19
2024-04-30T06:30:30.605Z,99982.81
2024-04-30T06:32:57.538Z,99981.78
2024-04-30T06:35:24.511Z,99989.16
2024-04-30T06:37:56.195Z,99994.38
2024-04-30T06:40:27.135Z,99991.53
2024-04-30T06:42:54.410Z,99993.72
2024-04-30T06:45:22.909Z,99990.53
2024-04-30T06:47:50.680Z,99994.38
2024-04-30T06:50:17.715Z,99997.38
2024-04-30T06:52:44.552Z,100006.03
2024-04-30T06:55:11.524Z,99997.09
2024-04-30T06:57:38.399Z,100004.00
2024-04-30T07:00:06.638Z,100004.75
2024-04-30T07:02:33.594Z,100016.28
2024-04-30T07:05:00.717Z,100003.56
2024-04-30T07:07:27.737Z,99990.06
2024-04-30T07:09:54.699Z,99994.06
2024-04-30T07:12:21.612Z,99990.31
2024-04-30T07:14:48.553Z,99990.22
2024-04-30T07:17:15.612Z,99996.78
2024-04-30T07:19:42.684Z,100012.78
2024-04-30T07:22:09.616Z,100012.06
2024-04-30T07:24:36.511Z,100007.03
2024-04-30T07:27:03.470Z,100002.75
2024-04-30T07:29:30.346Z,100018.88
2024-04-30T07:31:57.240Z,100013.97
2024-04-30T07:34:24.318Z,100020.44
2024-04-30T07:36:51.192Z,100031.25
2024-04-30T07:39:18.233Z,100019.66
2024-04-30T07:41:45.149Z,100031.47
2024-04-30T07:44:12.044Z,100026.88
2024-04-30T07:46:38.976Z,100022.47
2024-04-30T07:49:05.928Z,100033.63
2024-04-30T07:51:32.818Z,100035.91
2024-04-30T07:53:59.760Z,100029.53
2024-04-30T07:56:26.687Z,100028.88
2024-04-30T07:58:53.559Z,100034.06
2024-04-30T08:01:21.528Z,100023.47
2024-04-30T08:03:49.580Z,100024.50
2024-04-30T08:06:20.564Z,100024.56
2024-04-30T08:08:48.289Z,100029.88
2024-04-30T08:11:15.903Z,100015.47
2024-04-30T08:13:45.474Z,100012.47
2024-04-30T08:16:13.319Z,100008.31
2024-04-30T08:18:40.710Z,100007.94
2024-04-30T08:21:08.538Z,100011.97
2024-04-30T08:23:35.707Z,100009.53
2024-04-30T08:26:02.685Z,100015.66
2024-04-30T08:28:29.713Z,100000.06
2024-04-30T08:30:57.028Z,100009.38
2024-04-30T08:33:24.429Z,100017.16
2024-04-30T08:35:51.356Z,100018.84
2024-04-30T08:38:18.358Z,100017.00
2024-04-30T08:40:45.447Z,100026.16
2024-04-30T08:43:13.509Z,100028.25
2024-04-30T08:45:43.377Z,100026.56
2024-04-30T08:48:12.537Z,100040.75
2024-04-30T08:50:42.505Z,100047.59
2024-04-30T08:53:10.196Z,100039.94
2024-04-30T08:55:40.258Z,100037.00
2024-04-30T08:58:07.416Z,100040.09
2024-04-30T09:00:34.965Z,100045.94
2024-04-30T09:03:04.413Z,100032.53
2024-04-30T09:05:33.821Z,100040.03
2024-04-30T09:08:02.651Z,100043.84
2024-04-30T09:10:30.546Z,100028.78
2024-04-30T09:13:01.146Z,100028.69
2024-04-30T09:15:28.265Z,100047.00
2024-04-30T09:18:06.306Z,100046.25
2024-04-30T09:20:43.644Z,100052.13
2024-04-30T09:23:10.497Z,100050.34
2024-04-30T09:25:37.793Z,100043.09
2024-04-30T09:28:16.527Z,100052.78
2024-04-30T09:30:44.677Z,100057.69
2024-04-30T09:33:11.823Z,100040.22
2024-04-30T09:35:38.746Z,100044.47
2024-04-30T09:38:09.018Z,100052.94
2024-04-30T09:40:36.496Z,100039.88
2024-04-30T09:43:04.376Z,100028.81
2024-04-30T09:45:32.506Z,100040.31
2024-04-30T09:48:02.058Z,100030.56
2024-04-30T09:50:30.278Z,100021.94
2024-04-30T09:52:58.260Z,100031.84
2024-04-30T09:55:27.128Z,100034.88
2024-04-30T09:57:54.574Z,100030.44
2024-04-30T10:00:25.186Z,100031.72
2024-04-30T10:02:58.764Z,100030.66
2024-04-30T10:05:33.454Z,100040.53
2024-04-30T10:08:02.054Z,100044.00
2024-04-30T10:10:30.727Z,100028.63
2024-04-30T10:13:07.451Z,100043.69
2024-04-30T10:15:34.842Z,100021.00
2024-04-30T10:18:01.803Z,100027.03
2024-04-30T10:20:32.630Z,100035.94
2024-04-30T10:23:02.773Z,100040.06
2024-04-30T10:25:30.931Z,100048.78
2024-04-30T10:28:09.028Z,100053.72
2024-04-30T10:30:37.394Z,100039.00
2024-04-30T10:33:04.853Z,100047.19
2024-04-30T10:35:44.396Z,100079.25
2024-04-30T10:38:11.519Z,100080.44
2024-04-30T10:40:38.636Z,100065.28
2024-04-30T10:43:05.763Z,100071.34
2024-04-30T10:45:32.986Z,100078.00
2024-04-30T10:48:00.111Z,100069.47
2024-04-30T10:50:27.199Z,100054.06
2024-04-30T10:52:55.017Z,100063.22
2024-04-30T10:55:22.327Z,100062.44
2024-04-30T10:57:49.609Z,100062.31
2024-04-30T11:00:16.703Z,100049.59
2024-04-30T11:02:48.016Z,100062.50
2024-04-30T11:05:18.422Z,100033.72
2024-04-30T11:07:58.845Z,100051.00
2024-04-30T11:10:28.783Z,100062.44
2024-04-30T11:12:59.617Z,100048.38
2024-04-30T11:15:27.248Z,100054.03
2024-04-30T11:17:54.566Z,100078.25
2024-04-30T11:20:21.653Z,100069.97
2024-04-30T11:22:48.684Z,100087.53
2024-04-30T11:25:15.656Z,100081.94
2024-04-30T11:27:42.534Z,100085.25
2024-04-30T11:30:09.964Z,100065.66
2024-04-30T11:32:36.907Z,100090.28
2024-04-30T11:35:04.038Z,100078.16
2024-04-30T11:37:31.079Z,100093.34
2024-04-30T11:39:58.076Z,100094.38
2024-04-30T11:42:30.994Z,100094.34
2024-04-30T11:45:03.685Z,100095.50
2024-04-30T11:47:30.866Z,100103.22
2024-04-30T11:49:58.733Z,100099.16
2024-04-30T11:52:25.646Z,100108.16
2024-04-30T11:54:52.616Z,100092.00
2024-04-30T11:57:19.462Z,100100.63
2024-04-30T11:59:47.225Z,100107.06
2024-04-30T12:02:14.320Z,100105.09
2024-04-30T12:04:41.480Z,100111.22
2024-04-30T12:07:08.470Z,100111.31
2024-04-30T12:09:35.459Z,100112.88
2024-04-30T12:12:02.337Z,100100.25
2024-04-30T12:14:29.232Z,100099.63
2024-04-30T12:16:56.407Z,100110.19
2024-04-30T12:19:23.447Z,100108.63
2024-04-30T12:21:50.364Z,100119.94
2024-04-30T12:24:17.315Z,100120.41
2024-04-30T12:26:44.265Z,100112.22
2024-04-30T12:29:11.166Z,100111.41
2024-04-30T12:31:41.782Z,100106.41
2024-04-30T12:34:08.769Z,100116.78
2024-04-30T12:36:38.648Z,100099.31
2024-04-30T12:39:05.769Z,100084.66
2024-04-30T12:41:37.991Z,100099.94
2024-04-30T12:44:04.971Z,100080.34
2024-04-30T12:46:32.031Z,100081.31
2024-04-30T12:49:00.087Z,100082.78
2024-04-30T12:51:26.906Z,100079.50
2024-04-30T12:53:53.848Z,100083.66
2024-04-30T12:56:20.739Z,100090.31
2024-04-30T12:58:47.658Z,100079.75
2024-04-30T13:01:20.057Z,100087.81
2024-04-30T13:03:50.506Z,100093.28
2024-04-30T13:06:17.785Z,100082.44
2024-04-30T13:08:44.902Z,100084.47
2024-04-30T13:11:11.941Z,100096.34
2024-04-30T13:13:38.913Z,100084.75
2024-04-30T13:16:06.431Z,100094.94
2024-04-30T13:18:33.537Z,100095.09
2024-04-30T13:21:00.535Z,100085.53
2024-04-30T13:23:27.487Z,100094.63
2024-04-30T13:25:54.418Z,100107.09
2024-04-30T13:28:21.358Z,100097.81
2024-04-30T13:30:48.254Z,100092.28
2024-04-30T13:33:17.076Z,100107.28
2024-04-30T13:35:43.989Z,100106.56
2024-04-30T13:38:11.057Z,100112.53
2024-04-30T13:40:39.189Z,100103.91
2024-04-30T13:43:06.519Z,100108.97
2024-04-30T13:45:33.445Z,100093.25
2024-04-30T13:48:00.573Z,100100.22
2024-04-30T13:50:27.556Z,100105.56
2024-04-30T13:52:54.500Z,100099.22
2024-04-30T13:55:21.432Z,100103.53
2024-04-30T13:57:48.331Z,100118.31
2024-04-30T14:00:15.335Z,100090.63
2024-04-30T14:02:45.411Z,100094.03
2024-04-30T14:05:12.662Z,100095.34
2024-04-30T14:07:44.680Z,100088.91
2024-04-30T14:10:12.093Z,100097.66
2024-04-30T14:12:39.167Z,100087.56
2024-04-30T14:15:06.293Z,100089.56
2024-04-30T14:17:33.232Z,100095.63
2024-04-30T14:20:00.247Z,100091.25
2024-04-30T14:22:27.368Z,100081.75
2024-04-30T14:24:54.398Z,100091.13
2024-04-30T14:27:21.345Z,100078.28
2024-04-30T14:29:48.402Z,100087.53
2024-04-30T14:32:15.315Z,100085.41
2024-04-30T14:34:42.291Z,100078.69
2024-04-30T14:37:09.234Z,100086.41
2024-04-30T14:39:36.186Z,100069.88
2024-04-30T14:42:03.075Z,100088.78
2024-04-30T14:44:30.121Z,100071.38
2024-04-30T14:46:57.037Z,100078.47
2024-04-30T14:49:23.996Z,100069.75
2024-04-30T14:51:50.892Z,100082.91
2024-04-30T14:54:17.877Z,100080.22
2024-04-30T14:56:45.087Z,100079.88
2024-04-30T14:59:12.162Z,100079.84
2024-04-30T15:01:45.935Z,100082.59
2024-04-30T15:04:13.296Z,100067.38
2024-04-30T15:06:40.596Z,100083.97
2024-04-30T15:09:10.933Z,100070.09
2024-04-30T15:11:38.025Z,100067.25
2024-04-30T15:14:08.033Z,100072.06
2024-04-30T15:16:35.295Z,100066.28
2024-04-30T15:19:02.294Z,100074.84
2024-04-30T15:21:29.269Z,100061.09
2024-04-30T15:23:56.172Z,100066.47
2024-04-30T15:26:23.104Z,100057.28
2024-04-30T15:28:50.047Z,100057.28
2024-04-30T15:31:18.038Z,100065.34
2024-04-30T15:33:45.114Z,100079.91
2024-04-30T15:36:12.914Z,100074.56
2024-04-30T15:38:40.208Z,100065.47
2024-04-30T15:41:07.617Z,100069.84
2024-04-30T15:43:36.526Z,100069.84
2024-04-30T15:46:04.824Z,100072.34
2024-04-30T15:48:32.163Z,100072.53
2024-04-30T15:51:04.679Z,100072.53
2024-04-30T15:53:31.826Z,100061.16
2024-04-30T15:56:10.013Z,100075.25
2024-04-30T15:58:45.413Z,100074.94
2024-04-30T16:01:12.744Z,100075.59
2024-04-30T16:03:39.767Z,100059.50
2024-04-30T16:06:10.311Z,100061.84
2024-04-30T16:08:37.586Z,100068.06
2024-04-30T16:11:10.420Z,100071.75
2024-04-30T16:13:39.935Z,100064.88
2024-04-30T16:16:15.873Z,100060.19
2024-04-30T16:18:47.254Z,100058.50
2024-04-30T16:21:15.262Z,100055.16
2024-04-30T16:23:43.370Z,100054.50
2024-04-30T16:26:11.062Z,100051.97
2024-04-30T16:28:43.188Z,100054.16
2024-04-30T16:31:11.355Z,100049.13
2024-04-30T16:33:38.748Z,100063.72
2024-04-30T16:36:06.697Z,100040.41
2024-04-30T16:38:33.666Z,100046.78
2024-04-30T16:41:01.350Z,100047.59
2024-04-30T16:43:28.282Z,100041.06
2024-04-30T16:45:55.199Z,100051.13
2024-04-30T16:48:22.331Z,100047.59
2024-04-30T16:50:49.310Z,100045.94
2024-04-30T16:53:16.197Z,100042.41
2024-04-30T16:55:43.113Z,100039.56
2024-04-30T16:58:12.224Z,100039.06
2024-04-30T17:00:39.515Z,100044.44
2024-04-30T17:03:06.499Z,100043.38
2024-04-30T17:05:33.606Z,100049.59
2024-04-30T17:08:01.321Z,100048.44
2024-04-30T17:10:28.281Z,100042.75
2024-04-30T17:12:55.420Z,100054.13
2024-04-30T17:15:22.845Z,100048.78
2024-04-30T17:17:49.935Z,100045.44
2024-04-30T17:20:17.207Z,100048.75
2024-04-30T17:22:44.074Z,100035.34
2024-04-30T17:25:11.011Z,100055.31
2024-04-30T17:27:37.956Z,100044.09
2024-04-30T17:30:05.492Z,100041.72
2024-04-30T17:32:32.749Z,100040.38
2024-04-30T17:34:59.710Z,100044.38
2024-04-30T17:37:26.808Z,100036.19
2024-04-30T17:39:53.797Z,100041.38
2024-04-30T17:42:20.733Z,100051.78
2024-04-30T17:44:47.712Z,100044.72
2024-04-30T17:47:14.588Z,100043.75
2024-04-30T17:49:41.522Z,100043.56
2024-04-30T17:52:08.451Z,100037.19
2024-04-30T17:54:35.400Z,100047.84
2024-04-30T17:57:02.431Z,100045.72
2024-04-30T17:59:29.385Z,100048.38
2024-04-30T18:01:56.375Z,100049.03
2024-04-30T18:04:23.526Z,100055.75
2024-04-30T18:06:50.784Z,100060.44
2024-04-30T18:09:17.787Z,100064.78
2024-04-30T18:11:45.235Z,100070.44
2024-04-30T18:14:12.131Z,100065.91
2024-04-30T18:16:39.846Z,100064.34
2024-04-30T18:19:10.191Z,100069.75
2024-04-30T18:21:38.075Z,100070.25
2024-04-30T18:24:07.363Z,100071.22
2024-04-30T18:26:42.164Z,100072.78
2024-04-30T18:29:09.968Z,100072.50
2024-04-30T18:31:36.911Z,100084.22
2024-04-30T18:34:04.382Z,100086.22
2024-04-30T18:36:39.855Z,100086.03
2024-04-30T18:39:06.887Z,100096.16
2024-04-30T18:41:33.900Z,100095.91
2024-04-30T18:44:00.893Z,100100.22
2024-04-30T18:46:28.192Z,100108.59
2024-04-30T18:48:55.887Z,100107.47
2024-04-30T18:51:23.419Z,100118.53
2024-04-30T18:53:50.395Z,100117.69
2024-04-30T18:56:18.309Z,100113.16
2024-04-30T18:58:46.599Z,100117.78
2024-04-30T19:01:14.976Z,100114.34
2024-04-30T19:03:42.276Z,100118.28
2024-04-30T19:06:11.058Z,100106.91
2024-04-30T19:08:38.431Z,100111.75
2024-04-30T19:11:06.682Z,100112.13
2024-04-30T19:13:34.621Z,100114.44
2024-04-30T19:16:02.583Z,100104.31
2024-04-30T19:18:29.897Z,100111.81
2024-04-30T19:20:57.111Z,100110.84
2024-04-30T19:23:29.144Z,100117.69
2024-04-30T19:25:56.355Z,100108.63
2024-04-30T19:28:23.576Z,100107.97
2024-04-30T19:30:50.816Z,100110.44
2024-04-30T19:33:18.339Z,100109.94
2024-04-30T19:35:47.855Z,100116.81
2024-04-30T19:38:15.953Z,100116.22
2024-04-30T19:40:44.474Z,100113.53
2024-04-30T19:43:14.113Z,100108.19
2024-04-30T19:45:42.161Z,100114.09
2024-04-30T19:48:12.966Z,100120.66
2024-04-30T19:50:42.490Z,100124.94
2024-04-30T19:53:09.482Z,100123.31
2024-04-30T19:55:36.428Z,100132.13
2024-04-30T19:58:03.788Z,100126.63
2024-04-30T20:00:30.716Z,100139.31
2024-04-30T20:02:58.972Z,100142.75
2024-04-30T20:05:26.012Z,100136.41
2024-04-30T20:07:53.051Z,100140.06
2024-04-30T20:10:19.980Z,100140.41
2024-04-30T20:12:46.952Z,100147.06
2024-04-30T20:15:13.934Z,100153.97
2024-04-30T20:17:41.092Z,100152.47
2024-04-30T20:20:08.492Z,100148.22
2024-04-30T20:22:35.371Z,100150.69
2024-04-30T20:25:02.314Z,100151.38
2024-04-30T20:27:29.296Z,100154.94
2024-04-30T20:29:56.148Z,100153.69
2024-04-30T20:32:23.187Z,100158.72
2024-04-30T20:34:50.126Z,100154.53
2024-04-30T20:37:17.101Z,100159.25
2024-04-30T20:39:43.981Z,100160.88
2024-04-30T20:42:10.936Z,100157.13
2024-04-30T20:44:37.974Z,100149.81
2024-04-30T20:47:04.992Z,100154.72
2024-04-30T20:49:31.849Z,100159.44
2024-04-30T20:51:58.885Z,100167.81
2024-04-30T20:54:25.899Z,100165.00
2024-04-30T20:56:52.862Z,100167.69
2024-04-30T20:59:19.711Z,100165.53
2024-04-30T21:01:47.588Z,100170.91
2024-04-30T21:04:14.710Z,100172.34
2024-04-30T21:06:42.042Z,100179.66
2024-04-30T21:09:09.071Z,100183.25
2024-04-30T21:11:36.100Z,100187.53
2024-04-30T21:14:03.160Z,100189.84
2024-04-30T21:16:30.402Z,100193.50
2024-04-30T21:18:57.459Z,100197.09
2024-04-30T21:21:24.411Z,100201.44
2024-04-30T21:23:51.458Z,100203.91
2024-04-30T21:26:18.340Z,100203.59
2024-04-30T21:28:45.276Z,100201.50
2024-04-30T21:31:12.210Z,100194.88
2024-04-30T21:33:42.442Z,100198.84
2024-04-30T21:36:10.234Z,100196.41
2024-04-30T21:38:37.332Z,100186.03
2024-04-30T21:41:04.670Z,100182.06
2024-04-30T21:43:31.545Z,100179.53
2024-04-30T21:45:58.569Z,100176.84
2024-04-30T21:48:25.685Z,100181.44
2024-04-30T21:50:52.618Z,100180.50
2024-04-30T21:53:19.534Z,100173.03
2024-04-30T21:55:46.405Z,100184.72
2024-04-30T21:58:13.288Z,100174.66
2024-04-30T22:00:40.289Z,100181.97
2024-04-30T22:03:07.266Z,100185.47
2024-04-30T22:05:34.173Z,100175.69
2024-04-30T22:08:01.063Z,100174.03
2024-04-30T22:10:27.919Z,100186.09
2024-04-30T22:12:55.031Z,100186.59
2024-04-30T22:15:22.015Z,100179.06
2024-04-30T22:17:49.830Z,100189.28
2024-04-30T22:20:16.796Z,100186.75
2024-04-30T22:22:43.729Z,100186.41
2024-04-30T22:25:10.593Z,100195.78
2024-04-30T22:27:37.576Z,100200.28
2024-04-30T22:30:13.156Z,100192.78
2024-04-30T22:32:50.329Z,100197.59
2024-04-30T22:35:17.409Z,100192.25
2024-04-30T22:37:44.268Z,100193.25
2024-04-30T22:40:11.287Z,100191.06
2024-04-30T22:42:38.664Z,100197.44
2024-04-30T22:45:05.983Z,100196.06
2024-04-30T22:47:32.980Z,100196.06
2024-04-30T22:49:59.958Z,100188.06
2024-04-30T22:52:26.815Z,100199.06
2024-04-30T22:54:53.910Z,100202.44
2024-04-30T22:57:20.829Z,100196.06
2024-04-30T22:59:47.812Z,100197.00
2024-04-30T23:02:14.659Z,100197.31
2024-04-30T23:04:41.565Z,100188.09
2024-04-30T23:07:08.389Z,100193.94
2024-04-30T23:09:35.335Z,100183.88
2024-04-30T23:12:02.217Z,100195.25
2024-04-30T23:14:29.254Z,100194.56
2024-04-30T23:16:56.250Z,100188.53
2024-04-30T23:19:23.255Z,100184.72
2024-04-30T23:21:50.281Z,100184.31
2024-04-30T23:24:17.234Z,100182.88
2024-04-30T23:26:44.157Z,100186.63
2024-04-30T23:29:11.055Z,100182.88
2024-04-30T23:31:38.033Z,100181.66
2024-04-30T23:34:05.288Z,100181.50
2024-04-30T23:36:32.141Z,100185.84
2024-04-30T23:38:59.151Z,100186.53
2024-04-30T23:41:26.049Z,100182.88
2024-04-30T23:43:53.011Z,100191.19
2024-04-30T23:46:19.863Z,100194.25
2024-04-30T23:48:46.772Z,100188.53
2024-04-30T23:51:14.156Z,100191.06
2024-04-30T23:53:42.456Z,100188.91
2024-04-30T23:56:09.730Z,100188.63
2024-04-30T23:58:36.633Z,100189.31
